sensor_id;sensor_type;location;lat;lon;timestamp;P1;durP1;ratioP1;P2;durP2;ratioP2
27313;SDS011;14800;48.174;9.798;2022-09-09T00:00:38;3.28;;;0.77;;
27313;SDS011;14800;48.174;9.798;2022-09-09T00:03:14;3.45;;;0.80;;
27313;SDS011;14800;48.174;9.798;2022-09-09T00:08:38;1.00;;;0.60;;
27313;SDS011;14800;48.174;9.798;2022-09-09T00:11:08;0.98;;;0.80;;
27313;SDS011;14800;48.174;9.798;2022-09-09T00:13:39;1.50;;;0.82;;
27313;SDS011;14800;48.174;9.798;2022-09-09T00:16:21;1.00;;;0.68;;
27313;SDS011;14800;48.174;9.798;2022-09-09T00:18:57;1.50;;;0.77;;
27313;SDS011;14800;48.174;9.798;2022-09-09T00:21:43;0.75;;;0.65;;
27313;SDS011;14800;48.174;9.798;2022-09-09T00:24:29;1.15;;;0.70;;
27313;SDS011;14800;48.174;9.798;2022-09-09T00:27:06;3.88;;;0.77;;
27313;SDS011;14800;48.174;9.798;2022-09-09T00:30:13;1.88;;;0.80;;
27313;SDS011;14800;48.174;9.798;2022-09-09T00:32:39;0.82;;;0.82;;
27313;SDS011;14800;48.174;9.798;2022-09-09T00:37:36;2.47;;;0.70;;
27313;SDS011;14800;48.174;9.798;2022-09-09T00:40:06;2.83;;;0.77;;
27313;SDS011;14800;48.174;9.798;2022-09-09T00:42:43;0.85;;;0.70;;
27313;SDS011;14800;48.174;9.798;2022-09-09T00:45:32;2.35;;;0.80;;
27313;SDS011;14800;48.174;9.798;2022-09-09T00:48:00;1.20;;;0.75;;
27313;SDS011;14800;48.174;9.798;2022-09-09T00:50:52;1.95;;;0.70;;
27313;SDS011;14800;48.174;9.798;2022-09-09T00:56:13;1.10;;;0.70;;
27313;SDS011;14800;48.174;9.798;2022-09-09T00:58:48;2.47;;;0.70;;
27313;SDS011;14800;48.174;9.798;2022-09-09T01:01:36;2.20;;;0.70;;
27313;SDS011;14800;48.174;9.798;2022-09-09T01:04:04;0.88;;;0.77;;
27313;SDS011;14800;48.174;9.798;2022-09-09T01:06:41;1.88;;;0.90;;
27313;SDS011;14800;48.174;9.798;2022-09-09T01:22:11;1.35;;;0.70;;
27313;SDS011;14800;48.174;9.798;2022-09-09T01:27:40;0.88;;;0.70;;
27313;SDS011;14800;48.174;9.798;2022-09-09T01:30:09;1.25;;;0.70;;
27313;SDS011;14800;48.174;9.798;2022-09-09T01:32:40;1.65;;;0.80;;
27313;SDS011;14800;48.174;9.798;2022-09-09T01:38:00;2.15;;;0.95;;
27313;SDS011;14800;48.174;9.798;2022-09-09T01:40:25;0.95;;;0.70;;
27313;SDS011;14800;48.174;9.798;2022-09-09T01:42:52;3.33;;;1.08;;
27313;SDS011;14800;48.174;9.798;2022-09-09T01:45:18;2.83;;;0.90;;
27313;SDS011;14800;48.174;9.798;2022-09-09T01:47:44;2.05;;;0.85;;
27313;SDS011;14800;48.174;9.798;2022-09-09T01:50:11;2.00;;;1.52;;
27313;SDS011;14800;48.174;9.798;2022-09-09T01:52:39;6.18;;;2.33;;
27313;SDS011;14800;48.174;9.798;2022-09-09T01:55:05;11.52;;;4.10;;
27313;SDS011;14800;48.174;9.798;2022-09-09T02:00:21;10.05;;;4.55;;
27313;SDS011;14800;48.174;9.798;2022-09-09T02:05:38;6.55;;;3.13;;
27313;SDS011;14800;48.174;9.798;2022-09-09T02:10:44;3.47;;;1.70;;
27313;SDS011;14800;48.174;9.798;2022-09-09T02:13:16;3.95;;;1.80;;
27313;SDS011;14800;48.174;9.798;2022-09-09T02:16:47;2.58;;;1.52;;
27313;SDS011;14800;48.174;9.798;2022-09-09T02:19:00;2.45;;;1.50;;
27313;SDS011;14800;48.174;9.798;2022-09-09T02:21:33;1.77;;;1.20;;
27313;SDS011;14800;48.174;9.798;2022-09-09T02:24:03;1.77;;;1.10;;
27313;SDS011;14800;48.174;9.798;2022-09-09T02:26:33;2.08;;;0.95;;
27313;SDS011;14800;48.174;9.798;2022-09-09T02:29:04;1.35;;;0.93;;
27313;SDS011;14800;48.174;9.798;2022-09-09T02:31:41;1.42;;;1.00;;
27313;SDS011;14800;48.174;9.798;2022-09-09T02:34:09;3.20;;;1.08;;
27313;SDS011;14800;48.174;9.798;2022-09-09T02:36:37;1.77;;;1.08;;
27313;SDS011;14800;48.174;9.798;2022-09-09T02:39:07;3.92;;;0.95;;
27313;SDS011;14800;48.174;9.798;2022-09-09T02:41:35;1.73;;;1.20;;
27313;SDS011;14800;48.174;9.798;2022-09-09T02:44:11;5.20;;;1.08;;
27313;SDS011;14800;48.174;9.798;2022-09-09T02:49:33;2.75;;;0.95;;
27313;SDS011;14800;48.174;9.798;2022-09-09T02:52:06;2.28;;;0.90;;
27313;SDS011;14800;48.174;9.798;2022-09-09T02:54:42;4.35;;;1.10;;
27313;SDS011;14800;48.174;9.798;2022-09-09T02:57:25;3.45;;;1.20;;
27313;SDS011;14800;48.174;9.798;2022-09-09T02:59:52;1.43;;;0.93;;
27313;SDS011;14800;48.174;9.798;2022-09-09T03:02:21;1.65;;;0.90;;
27313;SDS011;14800;48.174;9.798;2022-09-09T03:04:47;1.95;;;0.90;;
27313;SDS011;14800;48.174;9.798;2022-09-09T03:07:16;1.95;;;0.90;;
27313;SDS011;14800;48.174;9.798;2022-09-09T03:09:43;2.55;;;1.33;;
27313;SDS011;14800;48.174;9.798;2022-09-09T03:12:09;2.53;;;1.25;;
27313;SDS011;14800;48.174;9.798;2022-09-09T03:14:36;3.42;;;1.00;;
27313;SDS011;14800;48.174;9.798;2022-09-09T03:17:03;1.17;;;1.08;;
27313;SDS011;14800;48.174;9.798;2022-09-09T03:19:30;3.10;;;1.10;;
27313;SDS011;14800;48.174;9.798;2022-09-09T03:21:56;1.73;;;1.20;;
27313;SDS011;14800;48.174;9.798;2022-09-09T03:24:22;5.25;;;1.30;;
27313;SDS011;14800;48.174;9.798;2022-09-09T03:26:48;1.98;;;1.20;;
27313;SDS011;14800;48.174;9.798;2022-09-09T03:29:15;3.50;;;1.30;;
27313;SDS011;14800;48.174;9.798;2022-09-09T03:31:42;3.42;;;1.48;;
27313;SDS011;14800;48.174;9.798;2022-09-09T03:34:08;3.08;;;1.70;;
27313;SDS011;14800;48.174;9.798;2022-09-09T03:36:34;4.22;;;1.45;;
27313;SDS011;14800;48.174;9.798;2022-09-09T03:39:00;1.63;;;1.30;;
27313;SDS011;14800;48.174;9.798;2022-09-09T03:41:27;1.52;;;1.23;;
27313;SDS011;14800;48.174;9.798;2022-09-09T03:43:53;1.77;;;1.27;;
27313;SDS011;14800;48.174;9.798;2022-09-09T03:46:20;1.33;;;1.23;;
27313;SDS011;14800;48.174;9.798;2022-09-09T03:48:46;3.88;;;1.27;;
27313;SDS011;14800;48.174;9.798;2022-09-09T03:51:12;6.72;;;1.33;;
27313;SDS011;14800;48.174;9.798;2022-09-09T03:53:38;1.10;;;1.05;;
27313;SDS011;14800;48.174;9.798;2022-09-09T03:56:05;1.33;;;1.23;;
27313;SDS011;14800;48.174;9.798;2022-09-09T03:58:32;2.95;;;1.20;;
27313;SDS011;14800;48.174;9.798;2022-09-09T04:01:00;4.85;;;1.70;;
27313;SDS011;14800;48.174;9.798;2022-09-09T04:03:27;2.28;;;1.30;;
27313;SDS011;14800;48.174;9.798;2022-09-09T04:05:54;5.20;;;1.40;;
27313;SDS011;14800;48.174;9.798;2022-09-09T04:08:20;4.72;;;1.38;;
27313;SDS011;14800;48.174;9.798;2022-09-09T04:10:47;2.35;;;1.10;;
27313;SDS011;14800;48.174;9.798;2022-09-09T04:13:14;2.03;;;1.35;;
27313;SDS011;14800;48.174;9.798;2022-09-09T04:15:42;2.53;;;1.00;;
27313;SDS011;14800;48.174;9.798;2022-09-09T04:18:08;2.35;;;1.13;;
27313;SDS011;14800;48.174;9.798;2022-09-09T04:20:34;4.82;;;1.30;;
27313;SDS011;14800;48.174;9.798;2022-09-09T04:23:00;1.90;;;1.20;;
27313;SDS011;14800;48.174;9.798;2022-09-09T04:25:26;4.22;;;1.40;;
27313;SDS011;14800;48.174;9.798;2022-09-09T04:27:55;1.27;;;1.17;;
27313;SDS011;14800;48.174;9.798;2022-09-09T04:30:21;2.55;;;1.63;;
27313;SDS011;14800;48.174;9.798;2022-09-09T04:32:47;1.42;;;1.30;;
27313;SDS011;14800;48.174;9.798;2022-09-09T04:35:13;2.10;;;1.08;;
27313;SDS011;14800;48.174;9.798;2022-09-09T04:37:38;4.25;;;1.27;;
27313;SDS011;14800;48.174;9.798;2022-09-09T04:40:04;2.00;;;1.20;;
27313;SDS011;14800;48.174;9.798;2022-09-09T04:42:34;3.83;;;1.38;;
27313;SDS011;14800;48.174;9.798;2022-09-09T04:45:00;4.32;;;1.20;;
27313;SDS011;14800;48.174;9.798;2022-09-09T04:47:26;2.80;;;1.45;;
27313;SDS011;14800;48.174;9.798;2022-09-09T04:49:52;4.40;;;2.00;;
27313;SDS011;14800;48.174;9.798;2022-09-09T04:52:19;4.30;;;2.20;;
27313;SDS011;14800;48.174;9.798;2022-09-09T04:54:45;3.35;;;2.05;;
27313;SDS011;14800;48.174;9.798;2022-09-09T04:57:11;2.80;;;1.90;;
27313;SDS011;14800;48.174;9.798;2022-09-09T04:59:37;1.75;;;1.40;;
27313;SDS011;14800;48.174;9.798;2022-09-09T05:02:04;2.97;;;1.58;;
27313;SDS011;14800;48.174;9.798;2022-09-09T05:04:30;2.45;;;1.65;;
27313;SDS011;14800;48.174;9.798;2022-09-09T05:06:55;3.42;;;1.52;;
27313;SDS011;14800;48.174;9.798;2022-09-09T05:09:21;2.95;;;1.60;;
27313;SDS011;14800;48.174;9.798;2022-09-09T05:11:47;2.25;;;1.40;;
27313;SDS011;14800;48.174;9.798;2022-09-09T05:14:13;2.92;;;1.20;;
27313;SDS011;14800;48.174;9.798;2022-09-09T05:16:39;3.08;;;1.30;;
27313;SDS011;14800;48.174;9.798;2022-09-09T05:19:05;3.65;;;1.65;;
27313;SDS011;14800;48.174;9.798;2022-09-09T05:21:32;4.88;;;2.20;;
27313;SDS011;14800;48.174;9.798;2022-09-09T05:23:59;4.40;;;2.20;;
27313;SDS011;14800;48.174;9.798;2022-09-09T05:26:25;4.55;;;1.90;;
27313;SDS011;14800;48.174;9.798;2022-09-09T05:28:51;3.75;;;1.58;;
27313;SDS011;14800;48.174;9.798;2022-09-09T05:31:17;15.95;;;6.47;;
27313;SDS011;14800;48.174;9.798;2022-09-09T05:33:44;10.05;;;4.65;;
27313;SDS011;14800;48.174;9.798;2022-09-09T05:36:12;5.45;;;3.40;;
27313;SDS011;14800;48.174;9.798;2022-09-09T05:38:39;5.15;;;2.30;;
27313;SDS011;14800;48.174;9.798;2022-09-09T05:41:06;5.70;;;2.28;;
27313;SDS011;14800;48.174;9.798;2022-09-09T05:43:33;3.30;;;2.40;;
27313;SDS011;14800;48.174;9.798;2022-09-09T05:48:30;7.80;;;2.30;;
27313;SDS011;14800;48.174;9.798;2022-09-09T05:50:56;2.97;;;1.55;;
27313;SDS011;14800;48.174;9.798;2022-09-09T05:53:23;1.98;;;1.35;;
27313;SDS011;14800;48.174;9.798;2022-09-09T05:55:48;2.60;;;1.40;;
27313;SDS011;14800;48.174;9.798;2022-09-09T05:58:14;1.63;;;1.35;;
27313;SDS011;14800;48.174;9.798;2022-09-09T06:00:41;3.95;;;1.38;;
27313;SDS011;14800;48.174;9.798;2022-09-09T06:03:10;2.20;;;1.38;;
27313;SDS011;14800;48.174;9.798;2022-09-09T06:05:36;4.00;;;1.63;;
27313;SDS011;14800;48.174;9.798;2022-09-09T06:08:02;4.32;;;1.30;;
27313;SDS011;14800;48.174;9.798;2022-09-09T06:10:28;2.35;;;1.45;;
27313;SDS011;14800;48.174;9.798;2022-09-09T06:12:54;3.13;;;1.60;;
27313;SDS011;14800;48.174;9.798;2022-09-09T06:15:19;2.80;;;1.63;;
27313;SDS011;14800;48.174;9.798;2022-09-09T06:17:45;3.80;;;1.33;;
27313;SDS011;14800;48.174;9.798;2022-09-09T06:20:11;3.38;;;1.80;;
27313;SDS011;14800;48.174;9.798;2022-09-09T06:22:39;3.15;;;1.63;;
27313;SDS011;14800;48.174;9.798;2022-09-09T06:25:06;4.28;;;2.00;;
27313;SDS011;14800;48.174;9.798;2022-09-09T06:27:33;4.07;;;1.58;;
27313;SDS011;14800;48.174;9.798;2022-09-09T06:29:58;4.30;;;1.77;;
27313;SDS011;14800;48.174;9.798;2022-09-09T06:32:24;6.00;;;2.00;;
27313;SDS011;14800;48.174;9.798;2022-09-09T06:34:51;3.17;;;1.70;;
27313;SDS011;14800;48.174;9.798;2022-09-09T06:37:17;5.78;;;1.70;;
27313;SDS011;14800;48.174;9.798;2022-09-09T06:39:43;6.78;;;1.77;;
27313;SDS011;14800;48.174;9.798;2022-09-09T06:42:09;4.57;;;1.60;;
27313;SDS011;14800;48.174;9.798;2022-09-09T06:44:34;4.45;;;1.90;;
27313;SDS011;14800;48.174;9.798;2022-09-09T06:47:01;6.13;;;1.80;;
27313;SDS011;14800;48.174;9.798;2022-09-09T06:49:27;4.85;;;1.63;;
27313;SDS011;14800;48.174;9.798;2022-09-09T06:51:52;35.83;;;2.20;;
27313;SDS011;14800;48.174;9.798;2022-09-09T06:54:19;2.95;;;1.52;;
27313;SDS011;14800;48.174;9.798;2022-09-09T06:56:45;5.93;;;1.63;;
27313;SDS011;14800;48.174;9.798;2022-09-09T06:59:10;2.30;;;1.35;;
27313;SDS011;14800;48.174;9.798;2022-09-09T07:01:41;3.25;;;1.45;;
27313;SDS011;14800;48.174;9.798;2022-09-09T07:04:11;3.25;;;1.38;;
27313;SDS011;14800;48.174;9.798;2022-09-09T07:06:39;2.10;;;1.20;;
27313;SDS011;14800;48.174;9.798;2022-09-09T07:09:09;4.25;;;1.10;;
27313;SDS011;14800;48.174;9.798;2022-09-09T07:11:42;1.67;;;1.05;;
27313;SDS011;14800;48.174;9.798;2022-09-09T07:14:10;2.45;;;0.90;;
27313;SDS011;14800;48.174;9.798;2022-09-09T07:16:39;2.38;;;0.88;;
27313;SDS011;14800;48.174;9.798;2022-09-09T07:19:08;2.38;;;0.90;;
27313;SDS011;14800;48.174;9.798;2022-09-09T07:21:34;1.40;;;0.80;;
27313;SDS011;14800;48.174;9.798;2022-09-09T07:23:59;2.60;;;1.30;;
27313;SDS011;14800;48.174;9.798;2022-09-09T07:26:27;3.70;;;1.00;;
27313;SDS011;14800;48.174;9.798;2022-09-09T07:28:54;3.42;;;0.98;;
27313;SDS011;14800;48.174;9.798;2022-09-09T07:31:27;2.13;;;0.95;;
27313;SDS011;14800;48.174;9.798;2022-09-09T07:33:55;1.48;;;0.77;;
27313;SDS011;14800;48.174;9.798;2022-09-09T07:36:22;3.63;;;1.02;;
27313;SDS011;14800;48.174;9.798;2022-09-09T07:38:51;2.05;;;0.80;;
27313;SDS011;14800;48.174;9.798;2022-09-09T07:41:22;5.78;;;1.50;;
27313;SDS011;14800;48.174;9.798;2022-09-09T07:43:57;2.03;;;0.90;;
27313;SDS011;14800;48.174;9.798;2022-09-09T07:46:24;2.22;;;0.90;;
27313;SDS011;14800;48.174;9.798;2022-09-09T07:48:52;3.03;;;0.82;;
27313;SDS011;14800;48.174;9.798;2022-09-09T07:51:23;1.85;;;0.95;;
27313;SDS011;14800;48.174;9.798;2022-09-09T07:53:52;1.65;;;0.70;;
27313;SDS011;14800;48.174;9.798;2022-09-09T07:56:20;2.17;;;0.82;;
27313;SDS011;14800;48.174;9.798;2022-09-09T07:58:49;2.92;;;0.85;;
27313;SDS011;14800;48.174;9.798;2022-09-09T08:01:26;1.52;;;0.80;;
27313;SDS011;14800;48.174;9.798;2022-09-09T08:03:58;2.15;;;1.00;;
27313;SDS011;14800;48.174;9.798;2022-09-09T08:06:26;1.25;;;0.60;;
27313;SDS011;14800;48.174;9.798;2022-09-09T08:08:53;1.30;;;0.60;;
27313;SDS011;14800;48.174;9.798;2022-09-09T08:11:20;4.82;;;0.88;;
27313;SDS011;14800;48.174;9.798;2022-09-09T08:13:48;2.83;;;0.80;;
27313;SDS011;14800;48.174;9.798;2022-09-09T08:16:16;2.35;;;0.90;;
27313;SDS011;14800;48.174;9.798;2022-09-09T08:18:47;1.42;;;0.70;;
27313;SDS011;14800;48.174;9.798;2022-09-09T08:21:18;1.67;;;0.57;;
27313;SDS011;14800;48.174;9.798;2022-09-09T08:23:45;1.52;;;0.50;;
27313;SDS011;14800;48.174;9.798;2022-09-09T08:26:16;1.67;;;0.52;;
27313;SDS011;14800;48.174;9.798;2022-09-09T08:28:44;1.42;;;0.60;;
27313;SDS011;14800;48.174;9.798;2022-09-09T08:31:11;2.65;;;0.50;;
27313;SDS011;14800;48.174;9.798;2022-09-09T08:33:42;1.42;;;0.50;;
27313;SDS011;14800;48.174;9.798;2022-09-09T08:36:11;1.17;;;0.50;;
27313;SDS011;14800;48.174;9.798;2022-09-09T08:38:42;1.48;;;0.73;;
27313;SDS011;14800;48.174;9.798;2022-09-09T08:41:16;1.92;;;0.60;;
27313;SDS011;14800;48.174;9.798;2022-09-09T08:44:02;3.97;;;0.70;;
27313;SDS011;14800;48.174;9.798;2022-09-09T08:52:29;2.22;;;0.80;;
27313;SDS011;14800;48.174;9.798;2022-09-09T08:54:56;2.17;;;0.60;;
27313;SDS011;14800;48.174;9.798;2022-09-09T08:57:29;2.05;;;0.45;;
27313;SDS011;14800;48.174;9.798;2022-09-09T08:59:57;1.92;;;0.77;;
27313;SDS011;14800;48.174;9.798;2022-09-09T09:05:31;4.57;;;0.60;;
27313;SDS011;14800;48.174;9.798;2022-09-09T09:08:12;3.03;;;0.90;;
27313;SDS011;14800;48.174;9.798;2022-09-09T09:10:52;2.33;;;0.70;;
27313;SDS011;14800;48.174;9.798;2022-09-09T09:16:19;2.70;;;0.57;;
27313;SDS011;14800;48.174;9.798;2022-09-09T09:18:47;1.70;;;0.63;;
27313;SDS011;14800;48.174;9.798;2022-09-09T09:21:19;1.77;;;0.50;;
27313;SDS011;14800;48.174;9.798;2022-09-09T09:24:05;2.00;;;0.60;;
27313;SDS011;14800;48.174;9.798;2022-09-09T09:26:41;2.13;;;0.52;;
27313;SDS011;14800;48.174;9.798;2022-09-09T09:29:12;1.98;;;0.55;;
27313;SDS011;14800;48.174;9.798;2022-09-09T09:31:42;2.58;;;0.80;;
27313;SDS011;14800;48.174;9.798;2022-09-09T09:34:13;3.40;;;0.82;;
27313;SDS011;14800;48.174;9.798;2022-09-09T09:36:40;5.18;;;0.70;;
27313;SDS011;14800;48.174;9.798;2022-09-09T09:39:09;2.67;;;0.80;;
27313;SDS011;14800;48.174;9.798;2022-09-09T09:41:36;2.03;;;0.57;;
27313;SDS011;14800;48.174;9.798;2022-09-09T09:44:05;0.50;;;0.40;;
27313;SDS011;14800;48.174;9.798;2022-09-09T09:46:44;2.10;;;0.68;;
27313;SDS011;14800;48.174;9.798;2022-09-09T09:49:10;3.70;;;0.70;;
27313;SDS011;14800;48.174;9.798;2022-09-09T09:51:35;1.20;;;0.55;;
27313;SDS011;14800;48.174;9.798;2022-09-09T09:56:43;2.15;;;0.63;;
27313;SDS011;14800;48.174;9.798;2022-09-09T10:01:53;3.05;;;0.40;;
27313;SDS011;14800;48.174;9.798;2022-09-09T10:04:20;1.35;;;0.50;;
27313;SDS011;14800;48.174;9.798;2022-09-09T10:06:48;1.52;;;0.45;;
27313;SDS011;14800;48.174;9.798;2022-09-09T10:09:28;2.03;;;0.70;;
27313;SDS011;14800;48.174;9.798;2022-09-09T10:26:53;1.52;;;0.47;;
27313;SDS011;14800;48.174;9.798;2022-09-09T10:34:56;3.20;;;0.40;;
27313;SDS011;14800;48.174;9.798;2022-09-09T10:37:31;1.73;;;0.40;;
27313;SDS011;14800;48.174;9.798;2022-09-09T10:43:04;1.30;;;0.40;;
27313;SDS011;14800;48.174;9.798;2022-09-09T10:45:45;1.88;;;0.32;;
27313;SDS011;14800;48.174;9.798;2022-09-09T10:56:32;2.33;;;0.52;;
27313;SDS011;14800;48.174;9.798;2022-09-09T11:01:33;4.97;;;0.50;;
27313;SDS011;14800;48.174;9.798;2022-09-09T11:04:13;1.88;;;0.52;;
27313;SDS011;14800;48.174;9.798;2022-09-09T11:06:46;2.20;;;0.40;;
27313;SDS011;14800;48.174;9.798;2022-09-09T11:09:18;0.85;;;0.38;;
27313;SDS011;14800;48.174;9.798;2022-09-09T11:11:53;1.42;;;0.50;;
27313;SDS011;14800;48.174;9.798;2022-09-09T11:17:12;1.08;;;0.30;;
27313;SDS011;14800;48.174;9.798;2022-09-09T11:19:45;1.42;;;0.40;;
27313;SDS011;14800;48.174;9.798;2022-09-09T11:22:15;2.15;;;0.45;;
27313;SDS011;14800;48.174;9.798;2022-09-09T11:24:52;2.33;;;0.40;;
27313;SDS011;14800;48.174;9.798;2022-09-09T11:27:26;1.60;;;0.63;;
27313;SDS011;14800;48.174;9.798;2022-09-09T11:35:32;1.17;;;0.40;;
27313;SDS011;14800;48.174;9.798;2022-09-09T11:38:22;1.27;;;0.40;;
27313;SDS011;14800;48.174;9.798;2022-09-09T11:41:00;1.83;;;0.50;;
27313;SDS011;14800;48.174;9.798;2022-09-09T11:46:17;3.40;;;0.40;;
27313;SDS011;14800;48.174;9.798;2022-09-09T11:48:58;1.63;;;0.40;;
27313;SDS011;14800;48.174;9.798;2022-09-09T11:51:29;0.90;;;0.30;;
27313;SDS011;14800;48.174;9.798;2022-09-09T11:54:00;1.38;;;0.50;;
27313;SDS011;14800;48.174;9.798;2022-09-09T11:56:28;1.17;;;0.30;;
27313;SDS011;14800;48.174;9.798;2022-09-09T11:59:20;1.67;;;0.40;;
27313;SDS011;14800;48.174;9.798;2022-09-09T12:02:00;2.53;;;0.40;;
27313;SDS011;14800;48.174;9.798;2022-09-09T12:04:32;1.15;;;0.50;;
27313;SDS011;14800;48.174;9.798;2022-09-09T12:19:39;1.92;;;0.38;;
27313;SDS011;14800;48.174;9.798;2022-09-09T12:22:15;1.77;;;0.30;;
27313;SDS011;14800;48.174;9.798;2022-09-09T12:25:20;1.00;;;0.60;;
27313;SDS011;14800;48.174;9.798;2022-09-09T12:28:18;1.95;;;0.50;;
27313;SDS011;14800;48.174;9.798;2022-09-09T12:33:12;1.83;;;0.40;;
27313;SDS011;14800;48.174;9.798;2022-09-09T12:35:42;0.82;;;0.30;;
27313;SDS011;14800;48.174;9.798;2022-09-09T12:38:15;0.50;;;0.30;;
27313;SDS011;14800;48.174;9.798;2022-09-09T12:40:54;1.13;;;0.70;;
27313;SDS011;14800;48.174;9.798;2022-09-09T12:43:23;4.68;;;0.77;;
27313;SDS011;14800;48.174;9.798;2022-09-09T12:45:50;1.08;;;0.55;;
27313;SDS011;14800;48.174;9.798;2022-09-09T12:48:22;1.25;;;0.50;;
27313;SDS011;14800;48.174;9.798;2022-09-09T12:51:01;1.88;;;0.50;;
27313;SDS011;14800;48.174;9.798;2022-09-09T12:58:28;1.92;;;0.50;;
27313;SDS011;14800;48.174;9.798;2022-09-09T13:00:58;2.10;;;0.50;;
27313;SDS011;14800;48.174;9.798;2022-09-09T13:03:25;1.17;;;0.40;;
27313;SDS011;14800;48.174;9.798;2022-09-09T13:05:51;1.35;;;0.45;;
27313;SDS011;14800;48.174;9.798;2022-09-09T13:08:18;1.20;;;0.47;;
27313;SDS011;14800;48.174;9.798;2022-09-09T13:13:22;1.25;;;0.40;;
27313;SDS011;14800;48.174;9.798;2022-09-09T13:15:55;1.88;;;0.50;;
27313;SDS011;14800;48.174;9.798;2022-09-09T13:18:23;3.28;;;0.45;;
27313;SDS011;14800;48.174;9.798;2022-09-09T13:20:51;0.70;;;0.30;;
27313;SDS011;14800;48.174;9.798;2022-09-09T13:23:18;0.52;;;0.50;;
27313;SDS011;14800;48.174;9.798;2022-09-09T13:25:52;0.47;;;0.30;;
27313;SDS011;14800;48.174;9.798;2022-09-09T13:28:29;2.70;;;0.40;;
27313;SDS011;14800;48.174;9.798;2022-09-09T13:30:56;1.85;;;0.50;;
27313;SDS011;14800;48.174;9.798;2022-09-09T13:33:30;0.50;;;0.40;;
27313;SDS011;14800;48.174;9.798;2022-09-09T13:38:29;0.82;;;0.40;;
27313;SDS011;14800;48.174;9.798;2022-09-09T13:40:58;2.50;;;0.40;;
27313;SDS011;14800;48.174;9.798;2022-09-09T13:43:28;1.08;;;0.25;;
27313;SDS011;14800;48.174;9.798;2022-09-09T13:48:58;1.13;;;0.35;;
27313;SDS011;14800;48.174;9.798;2022-09-09T13:51:44;0.82;;;0.20;;
27313;SDS011;14800;48.174;9.798;2022-09-09T13:54:13;0.73;;;0.20;;
27313;SDS011;14800;48.174;9.798;2022-09-09T13:56:40;1.83;;;0.40;;
27313;SDS011;14800;48.174;9.798;2022-09-09T13:59:09;1.10;;;0.50;;
27313;SDS011;14800;48.174;9.798;2022-09-09T14:01:37;1.52;;;0.28;;
27313;SDS011;14800;48.174;9.798;2022-09-09T14:04:03;1.23;;;0.43;;
27313;SDS011;14800;48.174;9.798;2022-09-09T14:06:31;0.30;;;0.13;;
27313;SDS011;14800;48.174;9.798;2022-09-09T14:08:57;1.50;;;0.45;;
27313;SDS011;14800;48.174;9.798;2022-09-09T14:11:23;1.13;;;0.50;;
27313;SDS011;14800;48.174;9.798;2022-09-09T14:13:49;2.00;;;0.50;;
27313;SDS011;14800;48.174;9.798;2022-09-09T14:16:16;1.77;;;0.47;;
27313;SDS011;14800;48.174;9.798;2022-09-09T14:18:42;1.45;;;0.70;;
27313;SDS011;14800;48.174;9.798;2022-09-09T14:21:11;1.63;;;0.40;;
27313;SDS011;14800;48.174;9.798;2022-09-09T14:23:37;1.55;;;0.38;;
27313;SDS011;14800;48.174;9.798;2022-09-09T14:26:03;1.92;;;0.47;;
27313;SDS011;14800;48.174;9.798;2022-09-09T14:28:33;1.50;;;0.40;;
27313;SDS011;14800;48.174;9.798;2022-09-09T14:31:00;0.95;;;0.28;;
27313;SDS011;14800;48.174;9.798;2022-09-09T14:33:27;2.50;;;0.47;;
27313;SDS011;14800;48.174;9.798;2022-09-09T14:35:59;2.47;;;0.43;;
27313;SDS011;14800;48.174;9.798;2022-09-09T14:38:29;1.05;;;0.30;;
27313;SDS011;14800;48.174;9.798;2022-09-09T14:40:56;2.38;;;0.40;;
27313;SDS011;14800;48.174;9.798;2022-09-09T14:43:23;0.85;;;0.30;;
27313;SDS011;14800;48.174;9.798;2022-09-09T14:45:49;0.77;;;0.30;;
27313;SDS011;14800;48.174;9.798;2022-09-09T14:48:16;2.78;;;0.52;;
27313;SDS011;14800;48.174;9.798;2022-09-09T14:50:42;1.33;;;0.40;;
27313;SDS011;14800;48.174;9.798;2022-09-09T14:53:08;0.52;;;0.20;;
27313;SDS011;14800;48.174;9.798;2022-09-09T14:55:35;1.30;;;0.30;;
27313;SDS011;14800;48.174;9.798;2022-09-09T14:58:02;0.95;;;0.30;;
27313;SDS011;14800;48.174;9.798;2022-09-09T15:00:28;0.95;;;0.43;;
27313;SDS011;14800;48.174;9.798;2022-09-09T15:02:53;1.00;;;0.30;;
27313;SDS011;14800;48.174;9.798;2022-09-09T15:05:19;0.50;;;0.28;;
27313;SDS011;14800;48.174;9.798;2022-09-09T15:07:45;1.25;;;0.38;;
27313;SDS011;14800;48.174;9.798;2022-09-09T15:10:13;0.98;;;0.40;;
27313;SDS011;14800;48.174;9.798;2022-09-09T15:12:39;1.67;;;0.43;;
27313;SDS011;14800;48.174;9.798;2022-09-09T15:15:04;1.63;;;0.40;;
27313;SDS011;14800;48.174;9.798;2022-09-09T15:17:31;1.02;;;0.40;;
27313;SDS011;14800;48.174;9.798;2022-09-09T15:19:56;2.13;;;0.63;;
27313;SDS011;14800;48.174;9.798;2022-09-09T15:22:22;2.15;;;0.65;;
27313;SDS011;14800;48.174;9.798;2022-09-09T15:24:49;1.58;;;0.55;;
27313;SDS011;14800;48.174;9.798;2022-09-09T15:27:15;1.77;;;0.30;;
27313;SDS011;14800;48.174;9.798;2022-09-09T15:29:40;0.63;;;0.25;;
27313;SDS011;14800;48.174;9.798;2022-09-09T15:32:06;1.90;;;0.38;;
27313;SDS011;14800;48.174;9.798;2022-09-09T15:34:32;1.02;;;0.30;;
27313;SDS011;14800;48.174;9.798;2022-09-09T15:36:58;1.17;;;0.32;;
27313;SDS011;14800;48.174;9.798;2022-09-09T15:39:25;5.38;;;0.55;;
27313;SDS011;14800;48.174;9.798;2022-09-09T15:41:51;1.40;;;0.50;;
27313;SDS011;14800;48.174;9.798;2022-09-09T15:44:17;3.00;;;0.45;;
27313;SDS011;14800;48.174;9.798;2022-09-09T15:46:50;0.73;;;0.25;;
27313;SDS011;14800;48.174;9.798;2022-09-09T15:51:47;1.23;;;0.32;;
27313;SDS011;14800;48.174;9.798;2022-09-09T15:54:22;1.25;;;0.30;;
27313;SDS011;14800;48.174;9.798;2022-09-09T15:56:50;2.10;;;0.73;;
27313;SDS011;14800;48.174;9.798;2022-09-09T15:59:17;2.38;;;0.30;;
27313;SDS011;14800;48.174;9.798;2022-09-09T16:01:43;2.10;;;0.70;;
27313;SDS011;14800;48.174;9.798;2022-09-09T16:04:09;0.60;;;0.40;;
27313;SDS011;14800;48.174;9.798;2022-09-09T16:06:35;0.88;;;0.30;;
27313;SDS011;14800;48.174;9.798;2022-09-09T16:09:02;1.38;;;0.40;;
27313;SDS011;14800;48.174;9.798;2022-09-09T16:11:30;1.40;;;0.30;;
27313;SDS011;14800;48.174;9.798;2022-09-09T16:13:59;0.50;;;0.30;;
27313;SDS011;14800;48.174;9.798;2022-09-09T16:16:26;1.55;;;0.30;;
27313;SDS011;14800;48.174;9.798;2022-09-09T16:18:54;1.80;;;0.40;;
27313;SDS011;14800;48.174;9.798;2022-09-09T16:21:24;1.67;;;0.32;;
27313;SDS011;14800;48.174;9.798;2022-09-09T16:23:58;1.08;;;0.30;;
27313;SDS011;14800;48.174;9.798;2022-09-09T16:26:26;3.60;;;0.80;;
27313;SDS011;14800;48.174;9.798;2022-09-09T16:28:52;1.52;;;0.35;;
27313;SDS011;14800;48.174;9.798;2022-09-09T16:31:19;1.52;;;0.30;;
27313;SDS011;14800;48.174;9.798;2022-09-09T16:33:47;0.93;;;0.30;;
27313;SDS011;14800;48.174;9.798;2022-09-09T16:36:15;1.30;;;0.20;;
27313;SDS011;14800;48.174;9.798;2022-09-09T16:38:42;1.10;;;0.20;;
27313;SDS011;14800;48.174;9.798;2022-09-09T16:41:09;1.85;;;0.20;;
27313;SDS011;14800;48.174;9.798;2022-09-09T16:43:35;1.35;;;0.20;;
27313;SDS011;14800;48.174;9.798;2022-09-09T16:46:02;1.10;;;0.30;;
27313;SDS011;14800;48.174;9.798;2022-09-09T16:48:36;0.77;;;0.28;;
27313;SDS011;14800;48.174;9.798;2022-09-09T16:51:02;0.70;;;0.30;;
27313;SDS011;14800;48.174;9.798;2022-09-09T16:53:30;1.17;;;0.45;;
27313;SDS011;14800;48.174;9.798;2022-09-09T16:55:57;1.85;;;0.40;;
27313;SDS011;14800;48.174;9.798;2022-09-09T16:58:22;1.15;;;0.22;;
27313;SDS011;14800;48.174;9.798;2022-09-09T17:00:48;1.50;;;0.20;;
27313;SDS011;14800;48.174;9.798;2022-09-09T17:03:15;1.33;;;0.30;;
27313;SDS011;14800;48.174;9.798;2022-09-09T17:05:41;1.83;;;0.52;;
27313;SDS011;14800;48.174;9.798;2022-09-09T17:08:07;1.95;;;0.50;;
27313;SDS011;14800;48.174;9.798;2022-09-09T17:10:34;0.98;;;0.50;;
27313;SDS011;14800;48.174;9.798;2022-09-09T17:13:04;2.30;;;0.80;;
27313;SDS011;14800;48.174;9.798;2022-09-09T17:15:30;1.60;;;0.70;;